sensor_id;sensor_type;location;lat;lon;timestamp;P1;durP1;ratioP1;P2;durP2;ratioP2
21661;SDS011;10992;48.170;8.596;2024-03-08T00:02:15;64.43;;;34.88;;
21661;SDS011;10992;48.170;8.596;2024-03-08T00:04:41;79.68;;;37.58;;
21661;SDS011;10992;48.170;8.596;2024-03-08T00:07:08;73.60;;;38.95;;
21661;SDS011;10992;48.170;8.596;2024-03-08T00:09:35;87.18;;;40.80;;
21661;SDS011;10992;48.170;8.596;2024-03-08T00:12:02;76.68;;;38.88;;
21661;SDS011;10992;48.170;8.596;2024-03-08T00:14:29;79.55;;;39.15;;
21661;SDS011;10992;48.170;8.596;2024-03-08T00:16:56;75.88;;;36.80;;
21661;SDS011;10992;48.170;8.596;2024-03-08T00:19:23;73.47;;;38.60;;
21661;SDS011;10992;48.170;8.596;2024-03-08T00:21:50;78.93;;;36.90;;
21661;SDS011;10992;48.170;8.596;2024-03-08T00:24:17;73.20;;;36.20;;
21661;SDS011;10992;48.170;8.596;2024-03-08T00:26:44;75.57;;;36.75;;
21661;SDS011;10992;48.170;8.596;2024-03-08T00:29:11;78.70;;;38.25;;
21661;SDS011;10992;48.170;8.596;2024-03-08T00:31:39;73.28;;;37.25;;
21661;SDS011;10992;48.170;8.596;2024-03-08T00:34:06;75.15;;;38.45;;
21661;SDS011;10992;48.170;8.596;2024-03-08T00:36:33;72.60;;;34.83;;
21661;SDS011;10992;48.170;8.596;2024-03-08T00:39:01;73.88;;;37.00;;
21661;SDS011;10992;48.170;8.596;2024-03-08T00:41:28;65.20;;;34.28;;
21661;SDS011;10992;48.170;8.596;2024-03-08T00:43:55;69.13;;;37.38;;
21661;SDS011;10992;48.170;8.596;2024-03-08T00:46:22;77.60;;;36.40;;
21661;SDS011;10992;48.170;8.596;2024-03-08T00:48:49;74.88;;;34.75;;
21661;SDS011;10992;48.170;8.596;2024-03-08T00:51:16;81.75;;;36.65;;
21661;SDS011;10992;48.170;8.596;2024-03-08T00:53:43;74.07;;;32.75;;
21661;SDS011;10992;48.170;8.596;2024-03-08T00:56:10;68.00;;;32.78;;
21661;SDS011;10992;48.170;8.596;2024-03-08T00:58:37;70.88;;;31.27;;
21661;SDS011;10992;48.170;8.596;2024-03-08T01:01:04;68.40;;;33.40;;
21661;SDS011;10992;48.170;8.596;2024-03-08T01:03:31;70.80;;;33.45;;
21661;SDS011;10992;48.170;8.596;2024-03-08T01:05:58;75.55;;;34.47;;
21661;SDS011;10992;48.170;8.596;2024-03-08T01:08:27;85.00;;;36.67;;
21661;SDS011;10992;48.170;8.596;2024-03-08T01:10:55;70.82;;;34.78;;
21661;SDS011;10992;48.170;8.596;2024-03-08T01:13:22;70.13;;;32.78;;
21661;SDS011;10992;48.170;8.596;2024-03-08T01:15:49;80.97;;;34.92;;
21661;SDS011;10992;48.170;8.596;2024-03-08T01:18:16;80.78;;;35.58;;
21661;SDS011;10992;48.170;8.596;2024-03-08T01:20:43;79.72;;;33.67;;
21661;SDS011;10992;48.170;8.596;2024-03-08T01:23:10;73.10;;;33.42;;
21661;SDS011;10992;48.170;8.596;2024-03-08T01:25:37;65.18;;;30.65;;
21661;SDS011;10992;48.170;8.596;2024-03-08T01:28:04;71.97;;;32.83;;
21661;SDS011;10992;48.170;8.596;2024-03-08T01:30:31;67.80;;;28.52;;
21661;SDS011;10992;48.170;8.596;2024-03-08T01:32:59;73.32;;;33.05;;
21661;SDS011;10992;48.170;8.596;2024-03-08T01:35:26;75.55;;;33.83;;
21661;SDS011;10992;48.170;8.596;2024-03-08T01:37:53;75.18;;;33.97;;
21661;SDS011;10992;48.170;8.596;2024-03-08T01:40:20;67.55;;;30.42;;
21661;SDS011;10992;48.170;8.596;2024-03-08T01:42:47;66.80;;;29.67;;
21661;SDS011;10992;48.170;8.596;2024-03-08T01:45:14;68.75;;;28.73;;
21661;SDS011;10992;48.170;8.596;2024-03-08T01:47:42;57.22;;;29.35;;
21661;SDS011;10992;48.170;8.596;2024-03-08T01:50:10;64.05;;;30.13;;
21661;SDS011;10992;48.170;8.596;2024-03-08T01:52:37;70.72;;;31.00;;
21661;SDS011;10992;48.170;8.596;2024-03-08T01:55:04;66.28;;;28.58;;
21661;SDS011;10992;48.170;8.596;2024-03-08T01:57:33;60.78;;;29.50;;
21661;SDS011;10992;48.170;8.596;2024-03-08T02:00:01;65.95;;;30.05;;
21661;SDS011;10992;48.170;8.596;2024-03-08T02:02:32;64.10;;;30.17;;
21661;SDS011;10992;48.170;8.596;2024-03-08T02:05:01;71.13;;;31.80;;
21661;SDS011;10992;48.170;8.596;2024-03-08T02:07:29;67.35;;;30.05;;
21661;SDS011;10992;48.170;8.596;2024-03-08T02:09:56;69.50;;;30.58;;
21661;SDS011;10992;48.170;8.596;2024-03-08T02:12:23;73.03;;;33.50;;
21661;SDS011;10992;48.170;8.596;2024-03-08T02:14:50;71.75;;;32.17;;
21661;SDS011;10992;48.170;8.596;2024-03-08T02:17:17;75.13;;;31.92;;
21661;SDS011;10992;48.170;8.596;2024-03-08T02:19:44;79.38;;;33.28;;
21661;SDS011;10992;48.170;8.596;2024-03-08T02:22:11;85.60;;;34.70;;
21661;SDS011;10992;48.170;8.596;2024-03-08T02:24:38;83.78;;;35.08;;
21661;SDS011;10992;48.170;8.596;2024-03-08T02:27:05;84.55;;;34.33;;
21661;SDS011;10992;48.170;8.596;2024-03-08T02:29:33;81.68;;;34.67;;
21661;SDS011;10992;48.170;8.596;2024-03-08T02:32:00;81.47;;;34.17;;
21661;SDS011;10992;48.170;8.596;2024-03-08T02:34:27;82.22;;;36.40;;
21661;SDS011;10992;48.170;8.596;2024-03-08T02:36:54;79.55;;;35.17;;
21661;SDS011;10992;48.170;8.596;2024-03-08T02:39:22;88.28;;;35.25;;
21661;SDS011;10992;48.170;8.596;2024-03-08T02:41:49;86.70;;;37.22;;
21661;SDS011;10992;48.170;8.596;2024-03-08T02:44:17;92.75;;;39.33;;
21661;SDS011;10992;48.170;8.596;2024-03-08T02:46:43;92.60;;;37.97;;
21661;SDS011;10992;48.170;8.596;2024-03-08T02:49:11;88.15;;;38.45;;
21661;SDS011;10992;48.170;8.596;2024-03-08T02:51:38;91.03;;;38.55;;
21661;SDS011;10992;48.170;8.596;2024-03-08T02:54:05;83.28;;;36.75;;
21661;SDS011;10992;48.170;8.596;2024-03-08T02:56:32;87.60;;;36.97;;
21661;SDS011;10992;48.170;8.596;2024-03-08T02:59:01;86.57;;;37.22;;
21661;SDS011;10992;48.170;8.596;2024-03-08T03:01:29;81.45;;;36.40;;
21661;SDS011;10992;48.170;8.596;2024-03-08T03:03:56;84.10;;;36.00;;
21661;SDS011;10992;48.170;8.596;2024-03-08T03:06:22;72.78;;;34.00;;
21661;SDS011;10992;48.170;8.596;2024-03-08T03:08:49;71.32;;;34.13;;
21661;SDS011;10992;48.170;8.596;2024-03-08T03:11:18;68.97;;;33.53;;
21661;SDS011;10992;48.170;8.596;2024-03-08T03:13:45;71.05;;;33.33;;
21661;SDS011;10992;48.170;8.596;2024-03-08T03:16:17;74.95;;;31.95;;
21661;SDS011;10992;48.170;8.596;2024-03-08T03:18:46;65.93;;;33.17;;
21661;SDS011;10992;48.170;8.596;2024-03-08T03:21:13;64.20;;;31.67;;
21661;SDS011;10992;48.170;8.596;2024-03-08T03:23:41;59.30;;;31.25;;
21661;SDS011;10992;48.170;8.596;2024-03-08T03:26:11;64.85;;;30.55;;
21661;SDS011;10992;48.170;8.596;2024-03-08T03:28:39;62.22;;;30.73;;
21661;SDS011;10992;48.170;8.596;2024-03-08T03:31:06;56.38;;;29.30;;
21661;SDS011;10992;48.170;8.596;2024-03-08T03:33:36;57.45;;;29.17;;
21661;SDS011;10992;48.170;8.596;2024-03-08T03:36:03;54.25;;;28.85;;
21661;SDS011;10992;48.170;8.596;2024-03-08T03:38:31;56.55;;;29.67;;
21661;SDS011;10992;48.170;8.596;2024-03-08T03:41:00;57.67;;;28.90;;
21661;SDS011;10992;48.170;8.596;2024-03-08T03:43:36;56.25;;;29.50;;
21661;SDS011;10992;48.170;8.596;2024-03-08T03:46:05;55.35;;;28.90;;
21661;SDS011;10992;48.170;8.596;2024-03-08T03:48:33;57.47;;;30.08;;
21661;SDS011;10992;48.170;8.596;2024-03-08T03:51:00;54.03;;;29.23;;
21661;SDS011;10992;48.170;8.596;2024-03-08T03:53:27;55.35;;;29.35;;
21661;SDS011;10992;48.170;8.596;2024-03-08T03:55:54;58.45;;;28.60;;
21661;SDS011;10992;48.170;8.596;2024-03-08T03:58:21;53.33;;;28.80;;
21661;SDS011;10992;48.170;8.596;2024-03-08T04:00:49;52.58;;;28.60;;
21661;SDS011;10992;48.170;8.596;2024-03-08T04:03:16;51.60;;;28.98;;
21661;SDS011;10992;48.170;8.596;2024-03-08T04:05:43;52.45;;;29.50;;
21661;SDS011;10992;48.170;8.596;2024-03-08T04:08:10;51.28;;;26.90;;
21661;SDS011;10992;48.170;8.596;2024-03-08T04:10:37;51.35;;;29.50;;
21661;SDS011;10992;48.170;8.596;2024-03-08T04:13:04;51.72;;;27.50;;
21661;SDS011;10992;48.170;8.596;2024-03-08T04:15:31;53.03;;;28.35;;
21661;SDS011;10992;48.170;8.596;2024-03-08T04:17:58;48.08;;;27.23;;
21661;SDS011;10992;48.170;8.596;2024-03-08T04:20:27;50.30;;;26.70;;
21661;SDS011;10992;48.170;8.596;2024-03-08T04:22:54;52.85;;;27.65;;
21661;SDS011;10992;48.170;8.596;2024-03-08T04:25:21;58.20;;;30.58;;
21661;SDS011;10992;48.170;8.596;2024-03-08T04:27:48;52.42;;;28.55;;
21661;SDS011;10992;48.170;8.596;2024-03-08T04:30:16;54.75;;;27.15;;
21661;SDS011;10992;48.170;8.596;2024-03-08T04:32:43;55.67;;;28.40;;
21661;SDS011;10992;48.170;8.596;2024-03-08T04:35:10;53.53;;;27.40;;
21661;SDS011;10992;48.170;8.596;2024-03-08T04:37:40;52.55;;;28.50;;
21661;SDS011;10992;48.170;8.596;2024-03-08T04:40:07;51.05;;;27.20;;
21661;SDS011;10992;48.170;8.596;2024-03-08T04:42:34;55.58;;;28.83;;
21661;SDS011;10992;48.170;8.596;2024-03-08T04:45:03;51.70;;;27.63;;
21661;SDS011;10992;48.170;8.596;2024-03-08T04:47:30;54.35;;;27.48;;
21661;SDS011;10992;48.170;8.596;2024-03-08T04:49:57;48.22;;;27.27;;
21661;SDS011;10992;48.170;8.596;2024-03-08T04:52:24;51.35;;;27.27;;
21661;SDS011;10992;48.170;8.596;2024-03-08T04:54:52;50.47;;;27.77;;
21661;SDS011;10992;48.170;8.596;2024-03-08T04:57:19;50.22;;;28.40;;
21661;SDS011;10992;48.170;8.596;2024-03-08T04:59:46;49.67;;;28.38;;
21661;SDS011;10992;48.170;8.596;2024-03-08T05:02:13;50.05;;;27.25;;
21661;SDS011;10992;48.170;8.596;2024-03-08T05:04:40;53.90;;;27.38;;
21661;SDS011;10992;48.170;8.596;2024-03-08T05:07:08;59.17;;;30.42;;
21661;SDS011;10992;48.170;8.596;2024-03-08T05:09:36;53.55;;;28.23;;
21661;SDS011;10992;48.170;8.596;2024-03-08T05:12:04;53.10;;;27.90;;
21661;SDS011;10992;48.170;8.596;2024-03-08T05:14:32;53.28;;;28.63;;
21661;SDS011;10992;48.170;8.596;2024-03-08T05:17:01;54.05;;;29.20;;
21661;SDS011;10992;48.170;8.596;2024-03-08T05:19:28;51.35;;;28.50;;
21661;SDS011;10992;48.170;8.596;2024-03-08T05:22:00;52.78;;;29.30;;
21661;SDS011;10992;48.170;8.596;2024-03-08T05:24:27;48.65;;;26.50;;
21661;SDS011;10992;48.170;8.596;2024-03-08T05:26:54;51.90;;;26.88;;
21661;SDS011;10992;48.170;8.596;2024-03-08T05:29:21;50.47;;;26.77;;
21661;SDS011;10992;48.170;8.596;2024-03-08T05:31:49;53.08;;;27.70;;
21661;SDS011;10992;48.170;8.596;2024-03-08T05:34:18;51.08;;;27.17;;
21661;SDS011;10992;48.170;8.596;2024-03-08T05:36:46;45.97;;;25.55;;
21661;SDS011;10992;48.170;8.596;2024-03-08T05:39:13;46.58;;;25.83;;
21661;SDS011;10992;48.170;8.596;2024-03-08T05:41:40;46.08;;;25.98;;
21661;SDS011;10992;48.170;8.596;2024-03-08T05:44:12;48.42;;;25.23;;
21661;SDS011;10992;48.170;8.596;2024-03-08T05:46:39;49.05;;;26.02;;
21661;SDS011;10992;48.170;8.596;2024-03-08T05:49:06;42.08;;;24.30;;
21661;SDS011;10992;48.170;8.596;2024-03-08T05:51:37;49.47;;;25.48;;
21661;SDS011;10992;48.170;8.596;2024-03-08T05:54:09;47.47;;;26.10;;
21661;SDS011;10992;48.170;8.596;2024-03-08T05:56:40;46.35;;;24.55;;
21661;SDS011;10992;48.170;8.596;2024-03-08T05:59:09;47.80;;;24.63;;
21661;SDS011;10992;48.170;8.596;2024-03-08T06:01:37;50.80;;;25.60;;
21661;SDS011;10992;48.170;8.596;2024-03-08T06:04:04;48.40;;;26.70;;
21661;SDS011;10992;48.170;8.596;2024-03-08T06:06:31;46.13;;;24.30;;
21661;SDS011;10992;48.170;8.596;2024-03-08T06:09:00;46.95;;;23.80;;
21661;SDS011;10992;48.170;8.596;2024-03-08T06:11:35;54.25;;;26.05;;
21661;SDS011;10992;48.170;8.596;2024-03-08T06:14:04;50.15;;;24.83;;
21661;SDS011;10992;48.170;8.596;2024-03-08T06:16:32;50.20;;;25.30;;
21661;SDS011;10992;48.170;8.596;2024-03-08T06:19:00;52.13;;;25.98;;
21661;SDS011;10992;48.170;8.596;2024-03-08T06:21:28;56.08;;;26.83;;
21661;SDS011;10992;48.170;8.596;2024-03-08T06:23:55;52.47;;;26.08;;
21661;SDS011;10992;48.170;8.596;2024-03-08T06:26:24;49.60;;;25.63;;
21661;SDS011;10992;48.170;8.596;2024-03-08T06:28:56;49.60;;;26.50;;
21661;SDS011;10992;48.170;8.596;2024-03-08T06:31:23;52.72;;;25.70;;
21661;SDS011;10992;48.170;8.596;2024-03-08T06:33:50;51.50;;;24.33;;
21661;SDS011;10992;48.170;8.596;2024-03-08T06:36:18;49.45;;;26.30;;
21661;SDS011;10992;48.170;8.596;2024-03-08T06:38:45;50.47;;;25.77;;
21661;SDS011;10992;48.170;8.596;2024-03-08T06:41:12;50.35;;;26.13;;
21661;SDS011;10992;48.170;8.596;2024-03-08T06:43:46;58.83;;;28.08;;
21661;SDS011;10992;48.170;8.596;2024-03-08T06:46:14;53.15;;;24.42;;
21661;SDS011;10992;48.170;8.596;2024-03-08T06:48:42;52.08;;;24.65;;
21661;SDS011;10992;48.170;8.596;2024-03-08T06:51:09;45.53;;;23.85;;
21661;SDS011;10992;48.170;8.596;2024-03-08T06:53:37;46.50;;;23.77;;
21661;SDS011;10992;48.170;8.596;2024-03-08T06:56:05;50.60;;;25.70;;
21661;SDS011;10992;48.170;8.596;2024-03-08T06:58:34;53.22;;;25.13;;
21661;SDS011;10992;48.170;8.596;2024-03-08T07:01:01;53.05;;;26.23;;
21661;SDS011;10992;48.170;8.596;2024-03-08T07:03:31;56.35;;;26.10;;
21661;SDS011;10992;48.170;8.596;2024-03-08T07:05:59;53.35;;;26.33;;
21661;SDS011;10992;48.170;8.596;2024-03-08T07:08:28;47.25;;;24.92;;
21661;SDS011;10992;48.170;8.596;2024-03-08T07:10:55;49.50;;;24.67;;
21661;SDS011;10992;48.170;8.596;2024-03-08T07:13:24;50.10;;;24.27;;
21661;SDS011;10992;48.170;8.596;2024-03-08T07:15:51;46.70;;;23.90;;
21661;SDS011;10992;48.170;8.596;2024-03-08T07:18:18;49.72;;;24.02;;
21661;SDS011;10992;48.170;8.596;2024-03-08T07:20:46;52.53;;;25.25;;
21661;SDS011;10992;48.170;8.596;2024-03-08T07:23:13;50.25;;;23.35;;
21661;SDS011;10992;48.170;8.596;2024-03-08T07:26:00;49.38;;;23.45;;
21661;SDS011;10992;48.170;8.596;2024-03-08T07:28:27;51.72;;;23.17;;
21661;SDS011;10992;48.170;8.596;2024-03-08T07:31:00;47.90;;;22.58;;
21661;SDS011;10992;48.170;8.596;2024-03-08T07:33:44;49.38;;;22.58;;
21661;SDS011;10992;48.170;8.596;2024-03-08T07:36:11;43.72;;;21.98;;
21661;SDS011;10992;48.170;8.596;2024-03-08T07:38:38;51.25;;;22.23;;
21661;SDS011;10992;48.170;8.596;2024-03-08T07:41:05;43.88;;;20.92;;
21661;SDS011;10992;48.170;8.596;2024-03-08T07:43:32;46.00;;;22.08;;
21661;SDS011;10992;48.170;8.596;2024-03-08T07:45:59;40.40;;;19.90;;
21661;SDS011;10992;48.170;8.596;2024-03-08T07:48:26;43.92;;;20.27;;
21661;SDS011;10992;48.170;8.596;2024-03-08T07:50:54;38.05;;;19.52;;
21661;SDS011;10992;48.170;8.596;2024-03-08T07:53:22;36.25;;;19.42;;
21661;SDS011;10992;48.170;8.596;2024-03-08T07:55:51;40.95;;;18.27;;
21661;SDS011;10992;48.170;8.596;2024-03-08T07:58:18;35.30;;;19.10;;
21661;SDS011;10992;48.170;8.596;2024-03-08T08:00:45;36.70;;;19.15;;
21661;SDS011;10992;48.170;8.596;2024-03-08T08:03:12;30.77;;;17.80;;
21661;SDS011;10992;48.170;8.596;2024-03-08T08:05:39;34.75;;;18.23;;
21661;SDS011;10992;48.170;8.596;2024-03-08T08:08:09;37.10;;;19.52;;
21661;SDS011;10992;48.170;8.596;2024-03-08T08:10:38;32.25;;;17.65;;
21661;SDS011;10992;48.170;8.596;2024-03-08T08:13:05;33.70;;;18.38;;
21661;SDS011;10992;48.170;8.596;2024-03-08T08:15:32;34.67;;;18.63;;
21661;SDS011;10992;48.170;8.596;2024-03-08T08:18:02;32.10;;;18.10;;
21661;SDS011;10992;48.170;8.596;2024-03-08T08:20:33;33.63;;;18.77;;
21661;SDS011;10992;48.170;8.596;2024-03-08T08:22:59;31.80;;;18.13;;
21661;SDS011;10992;48.170;8.596;2024-03-08T08:25:26;39.13;;;18.60;;
21661;SDS011;10992;48.170;8.596;2024-03-08T08:27:53;30.35;;;17.17;;
21661;SDS011;10992;48.170;8.596;2024-03-08T08:30:20;30.70;;;17.00;;
21661;SDS011;10992;48.170;8.596;2024-03-08T08:32:47;30.65;;;16.63;;
21661;SDS011;10992;48.170;8.596;2024-03-08T08:35:15;30.52;;;17.00;;
21661;SDS011;10992;48.170;8.596;2024-03-08T08:37:42;29.27;;;16.95;;
21661;SDS011;10992;48.170;8.596;2024-03-08T08:40:10;28.70;;;17.08;;
21661;SDS011;10992;48.170;8.596;2024-03-08T08:42:41;30.08;;;17.38;;
21661;SDS011;10992;48.170;8.596;2024-03-08T08:45:09;28.48;;;16.85;;
21661;SDS011;10992;48.170;8.596;2024-03-08T08:47:45;33.80;;;17.88;;
21661;SDS011;10992;48.170;8.596;2024-03-08T08:50:13;32.53;;;17.35;;
21661;SDS011;10992;48.170;8.596;2024-03-08T08:52:40;32.35;;;16.50;;
21661;SDS011;10992;48.170;8.596;2024-03-08T08:55:10;26.65;;;16.63;;
21661;SDS011;10992;48.170;8.596;2024-03-08T08:57:41;28.50;;;16.80;;
21661;SDS011;10992;48.170;8.596;2024-03-08T09:00:11;29.50;;;15.95;;
21661;SDS011;10992;48.170;8.596;2024-03-08T09:02:41;26.45;;;15.40;;
21661;SDS011;10992;48.170;8.596;2024-03-08T09:05:09;26.70;;;15.57;;
21661;SDS011;10992;48.170;8.596;2024-03-08T09:07:36;28.70;;;15.75;;
21661;SDS011;10992;48.170;8.596;2024-03-08T09:10:04;30.02;;;16.27;;
21661;SDS011;10992;48.170;8.596;2024-03-08T09:12:34;26.05;;;14.70;;
21661;SDS011;10992;48.170;8.596;2024-03-08T09:15:00;25.75;;;15.75;;
21661;SDS011;10992;48.170;8.596;2024-03-08T09:17:28;28.80;;;15.85;;
21661;SDS011;10992;48.170;8.596;2024-03-08T09:19:55;24.17;;;14.52;;
21661;SDS011;10992;48.170;8.596;2024-03-08T09:22:23;27.17;;;15.68;;
21661;SDS011;10992;48.170;8.596;2024-03-08T09:24:50;24.80;;;14.48;;
21661;SDS011;10992;48.170;8.596;2024-03-08T09:27:17;25.95;;;14.60;;
21661;SDS011;10992;48.170;8.596;2024-03-08T09:29:44;22.90;;;13.45;;
21661;SDS011;10992;48.170;8.596;2024-03-08T09:32:11;25.05;;;14.90;;
21661;SDS011;10992;48.170;8.596;2024-03-08T09:34:38;23.45;;;14.90;;
21661;SDS011;10992;48.170;8.596;2024-03-08T09:37:06;20.60;;;14.23;;
21661;SDS011;10992;48.170;8.596;2024-03-08T09:39:33;23.05;;;13.82;;
21661;SDS011;10992;48.170;8.596;2024-03-08T09:42:00;23.73;;;14.95;;
21661;SDS011;10992;48.170;8.596;2024-03-08T09:44:28;23.08;;;14.63;;
21661;SDS011;10992;48.170;8.596;2024-03-08T09:46:55;26.67;;;15.07;;
21661;SDS011;10992;48.170;8.596;2024-03-08T09:49:24;27.77;;;15.88;;
21661;SDS011;10992;48.170;8.596;2024-03-08T09:51:52;25.30;;;15.55;;
21661;SDS011;10992;48.170;8.596;2024-03-08T09:54:19;23.73;;;14.43;;
21661;SDS011;10992;48.170;8.596;2024-03-08T09:56:51;26.30;;;14.50;;
21661;SDS011;10992;48.170;8.596;2024-03-08T09:59:19;22.35;;;14.02;;
21661;SDS011;10992;48.170;8.596;2024-03-08T10:02:12;22.45;;;14.27;;
21661;SDS011;10992;48.170;8.596;2024-03-08T10:04:42;22.88;;;14.18;;
21661;SDS011;10992;48.170;8.596;2024-03-08T10:07:09;25.58;;;14.35;;
21661;SDS011;10992;48.170;8.596;2024-03-08T10:09:36;20.45;;;13.10;;
21661;SDS011;10992;48.170;8.596;2024-03-08T10:12:02;22.00;;;12.88;;
21661;SDS011;10992;48.170;8.596;2024-03-08T10:14:31;20.27;;;12.35;;
21661;SDS011;10992;48.170;8.596;2024-03-08T10:16:58;21.80;;;13.27;;
21661;SDS011;10992;48.170;8.596;2024-03-08T10:19:27;19.48;;;12.95;;
21661;SDS011;10992;48.170;8.596;2024-03-08T10:21:58;18.40;;;12.25;;
21661;SDS011;10992;48.170;8.596;2024-03-08T10:24:26;20.42;;;13.55;;
21661;SDS011;10992;48.170;8.596;2024-03-08T10:26:53;19.13;;;13.00;;
21661;SDS011;10992;48.170;8.596;2024-03-08T10:29:25;18.55;;;12.52;;
21661;SDS011;10992;48.170;8.596;2024-03-08T10:31:52;19.23;;;12.82;;
21661;SDS011;10992;48.170;8.596;2024-03-08T10:34:19;16.95;;;11.73;;
21661;SDS011;10992;48.170;8.596;2024-03-08T10:36:46;15.85;;;11.02;;
21661;SDS011;10992;48.170;8.596;2024-03-08T10:39:22;15.32;;;10.32;;
21661;SDS011;10992;48.170;8.596;2024-03-08T10:41:56;15.40;;;11.18;;
21661;SDS011;10992;48.170;8.596;2024-03-08T10:47:02;16.85;;;10.73;;
21661;SDS011;10992;48.170;8.596;2024-03-08T10:49:35;13.63;;;9.77;;
21661;SDS011;10992;48.170;8.596;2024-03-08T10:52:05;16.52;;;11.25;;
21661;SDS011;10992;48.170;8.596;2024-03-08T10:54:36;14.60;;;10.52;;
21661;SDS011;10992;48.170;8.596;2024-03-08T10:57:11;13.40;;;9.70;;
21661;SDS011;10992;48.170;8.596;2024-03-08T10:59:39;20.27;;;10.38;;
21661;SDS011;10992;48.170;8.596;2024-03-08T11:02:07;14.82;;;10.52;;
21661;SDS011;10992;48.170;8.596;2024-03-08T11:04:36;14.25;;;10.15;;
21661;SDS011;10992;48.170;8.596;2024-03-08T11:07:04;14.73;;;9.70;;
21661;SDS011;10992;48.170;8.596;2024-03-08T11:09:37;14.38;;;10.18;;
21661;SDS011;10992;48.170;8.596;2024-03-08T11:12:27;14.73;;;9.73;;
21661;SDS011;10992;48.170;8.596;2024-03-08T11:14:59;14.50;;;9.50;;
21661;SDS011;10992;48.170;8.596;2024-03-08T11:19:58;14.25;;;10.25;;
21661;SDS011;10992;48.170;8.596;2024-03-08T11:22:29;13.43;;;10.02;;
21661;SDS011;10992;48.170;8.596;2024-03-08T11:25:03;14.05;;;10.48;;
21661;SDS011;10992;48.170;8.596;2024-03-08T11:27:36;13.48;;;10.27;;
21661;SDS011;10992;48.170;8.596;2024-03-08T11:30:07;12.48;;;9.82;;
21661;SDS011;10992;48.170;8.596;2024-03-08T11:32:46;10.95;;;9.18;;
21661;SDS011;10992;48.170;8.596;2024-03-08T11:35:21;14.30;;;9.68;;
21661;SDS011;10992;48.170;8.596;2024-03-08T11:37:50;13.30;;;9.60;;
21661;SDS011;10992;48.170;8.596;2024-03-08T11:40:17;12.27;;;9.27;;
21661;SDS011;10992;48.170;8.596;2024-03-08T11:42:46;14.48;;;10.10;;
21661;SDS011;10992;48.170;8.596;2024-03-08T11:45:18;12.13;;;9.68;;
21661;SDS011;10992;48.170;8.596;2024-03-08T11:47:48;12.10;;;9.18;;
21661;SDS011;10992;48.170;8.596;2024-03-08T11:50:16;11.27;;;9.05;;
21661;SDS011;10992;48.170;8.596;2024-03-08T11:52:46;12.90;;;9.43;;
21661;SDS011;10992;48.170;8.596;2024-03-08T11:55:13;12.57;;;9.57;;
21661;SDS011;10992;48.170;8.596;2024-03-08T11:57:41;12.55;;;9.45;;
21661;SDS011;10992;48.170;8.596;2024-03-08T12:00:15;10.25;;;8.57;;
21661;SDS011;10992;48.170;8.596;2024-03-08T12:03:05;12.82;;;8.73;;
21661;SDS011;10992;48.170;8.596;2024-03-08T12:05:33;10.63;;;8.68;;
21661;SDS011;10992;48.170;8.596;2024-03-08T12:08:03;10.00;;;8.43;;
21661;SDS011;10992;48.170;8.596;2024-03-08T12:10:40;10.20;;;8.63;;
21661;SDS011;10992;48.170;8.596;2024-03-08T12:13:07;11.68;;;9.25;;
21661;SDS011;10992;48.170;8.596;2024-03-08T12:15:39;11.98;;;8.65;;
21661;SDS011;10992;48.170;8.596;2024-03-08T12:18:07;10.90;;;8.90;;
21661;SDS011;10992;48.170;8.596;2024-03-08T12:20:37;11.55;;;9.30;;
21661;SDS011;10992;48.170;8.596;2024-03-08T12:23:05;10.80;;;9.07;;
21661;SDS011;10992;48.170;8.596;2024-03-08T12:25:33;11.75;;;9.30;;
21661;SDS011;10992;48.170;8.596;2024-03-08T12:28:09;13.05;;;9.50;;
21661;SDS011;10992;48.170;8.596;2024-03-08T12:30:58;10.18;;;8.35;;
21661;SDS011;10992;48.170;8.596;2024-03-08T12:33:25;11.15;;;9.05;;
21661;SDS011;10992;48.170;8.596;2024-03-08T12:35:54;11.73;;;8.80;;
21661;SDS011;10992;48.170;8.596;2024-03-08T12:38:22;13.38;;;8.70;;
21661;SDS011;10992;48.170;8.596;2024-03-08T12:40:58;10.63;;;8.45;;
21661;SDS011;10992;48.170;8.596;2024-03-08T12:43:26;10.18;;;8.25;;
21661;SDS011;10992;48.170;8.596;2024-03-08T12:45:57;10.82;;;8.52;;
21661;SDS011;10992;48.170;8.596;2024-03-08T12:48:24;10.35;;;8.75;;
21661;SDS011;10992;48.170;8.596;2024-03-08T12:50:51;10.95;;;8.88;;
21661;SDS011;10992;48.170;8.596;2024-03-08T12:53:21;11.45;;;9.20;;
21661;SDS011;10992;48.170;8.596;2024-03-08T12:55:52;12.13;;;9.38;;
21661;SDS011;10992;48.170;8.596;2024-03-08T12:58:19;13.02;;;10.02;;
21661;SDS011;10992;48.170;8.596;2024-03-08T13:00:46;11.60;;;8.68;;
21661;SDS011;10992;48.170;8.596;2024-03-08T13:03:16;12.27;;;9.55;;
21661;SDS011;10992;48.170;8.596;2024-03-08T13:05:46;11.98;;;9.02;;
21661;SDS011;10992;48.170;8.596;2024-03-08T13:08:14;15.18;;;10.25;;
21661;SDS011;10992;48.170;8.596;2024-03-08T13:10:42;17.67;;;12.48;;
21661;SDS011;10992;48.170;8.596;2024-03-08T13:13:11;13.98;;;9.75;;
21661;SDS011;10992;48.170;8.596;2024-03-08T13:15:41;11.88;;;9.15;;
21661;SDS011;10992;48.170;8.596;2024-03-08T13:18:08;10.43;;;8.30;;
21661;SDS011;10992;48.170;8.596;2024-03-08T13:20:37;12.60;;;8.88;;
21661;SDS011;10992;48.170;8.596;2024-03-08T13:23:13;15.95;;;11.82;;
21661;SDS011;10992;48.170;8.596;2024-03-08T13:25:39;12.48;;;8.85;;
21661;SDS011;10992;48.170;8.596;2024-03-08T13:28:07;12.18;;;8.82;;
21661;SDS011;10992;48.170;8.596;2024-03-08T13:30:35;10.38;;;8.25;;
21661;SDS011;10992;48.170;8.596;2024-03-08T13:33:03;10.88;;;8.60;;
21661;SDS011;10992;48.170;8.596;2024-03-08T13:35:33;13.02;;;9.07;;
21661;SDS011;10992;48.170;8.596;2024-03-08T13:38:01;9.82;;;8.15;;
21661;SDS011;10992;48.170;8.596;2024-03-08T13:40:31;11.90;;;9.13;;
21661;SDS011;10992;48.170;8.596;2024-03-08T13:42:58;10.50;;;8.35;;
21661;SDS011;10992;48.170;8.596;2024-03-08T13:45:27;11.30;;;8.60;;
21661;SDS011;10992;48.170;8.596;2024-03-08T13:47:54;11.07;;;9.13;;
21661;SDS011;10992;48.170;8.596;2024-03-08T13:50:21;10.38;;;8.35;;
21661;SDS011;10992;48.170;8.596;2024-03-08T13:52:49;10.73;;;8.90;;
21661;SDS011;10992;48.170;8.596;2024-03-08T13:55:23;11.70;;;9.27;;
21661;SDS011;10992;48.170;8.596;2024-03-08T13:57:54;11.73;;;8.77;;
21661;SDS011;10992;48.170;8.596;2024-03-08T14:00:23;10.30;;;8.15;;
21661;SDS011;10992;48.170;8.596;2024-03-08T14:02:53;10.10;;;8.00;;
21661;SDS011;10992;48.170;8.596;2024-03-08T14:05:20;11.05;;;8.88;;
21661;SDS011;10992;48.170;8.596;2024-03-08T14:07:47;12.32;;;9.13;;
21661;SDS011;10992;48.170;8.596;2024-03-08T14:10:16;10.50;;;8.15;;
21661;SDS011;10992;48.170;8.596;2024-03-08T14:12:47;12.80;;;9.15;;
21661;SDS011;10992;48.170;8.596;2024-03-08T14:15:16;11.18;;;8.77;;
21661;SDS011;10992;48.170;8.596;2024-03-08T14:17:44;13.63;;;9.13;;
21661;SDS011;10992;48.170;8.596;2024-03-08T14:20:18;10.68;;;9.40;;
21661;SDS011;10992;48.170;8.596;2024-03-08T14:22:45;10.88;;;8.60;;
21661;SDS011;10992;48.170;8.596;2024-03-08T14:25:12;10.88;;;8.68;;
21661;SDS011;10992;48.170;8.596;2024-03-08T14:27:45;11.60;;;8.73;;
21661;SDS011;10992;48.170;8.596;2024-03-08T14:30:12;10.38;;;8.27;;
21661;SDS011;10992;48.170;8.596;2024-03-08T14:32:40;11.20;;;8.43;;
21661;SDS011;10992;48.170;8.596;2024-03-08T14:35:10;10.95;;;8.68;;
21661;SDS011;10992;48.170;8.596;2024-03-08T14:37:37;13.48;;;9.10;;